Time;durP1;ratioP1;P1;durP2;ratioP2;P2;SDS_P1;SDS_P2;PMS_P1;PMS_P2;Temp;Humidity;BMP_temperature;BMP_pressure;BME280_temperature;BME280_humidity;BME280_pressure;Samples;Min_cycle;Max_cycle;Signal;HPM_P1;HPM_P2
2022/07/31 00:00:43;;;;;;;11.32;6.00;;;;;;;27.00;52.94;100098.09;5030370;28;20108;-79
2022/07/31 00:03:09;;;;;;;7.88;6.32;;;;;;;27.02;51.78;100086.50;5030365;28;20104;-79
2022/07/31 00:05:36;;;;;;;8.10;6.10;;;;;;;27.18;50.77;100088.56;5030223;28;20052;-82
2022/07/31 00:08:03;;;;;;;10.88;6.05;;;;;;;27.17;50.72;100097.47;5030193;28;20025;-80
2022/07/31 00:10:28;;;;;;;6.05;5.45;;;;;;;27.07;50.36;100073.94;5030083;28;20032;-79
2022/07/31 00:12:54;;;;;;;7.25;6.13;;;;;;;27.16;50.99;100075.38;5030335;28;20018;-80
2022/07/31 00:15:20;;;;;;;8.75;6.40;;;;;;;27.12;50.59;100087.88;5029984;28;20025;-78
2022/07/31 00:17:46;;;;;;;9.65;6.00;;;;;;;27.07;50.68;100073.09;5030015;28;20064;-81
2022/07/31 00:20:14;;;;;;;8.48;6.25;;;;;;;27.17;50.10;100063.00;5029942;28;20483;-77
2022/07/31 00:22:41;;;;;;;11.15;6.00;;;;;;;27.09;49.52;100050.03;5012085;28;20044;-78
2022/07/31 00:25:07;;;;;;;8.02;6.05;;;;;;;27.22;50.10;100067.19;5030194;28;20373;-82
2022/07/31 00:27:33;;;;;;;9.88;5.70;;;;;;;27.07;50.75;100070.44;5029662;28;20055;-80
2022/07/31 00:29:58;;;;;;;18.90;6.82;;;;;;;26.63;51.33;100011.09;5030125;28;20437;-82
2022/07/31 00:32:24;;;;;;;7.93;6.10;;;;;;;26.86;50.23;100048.28;5029891;28;20022;-78
2022/07/31 00:34:49;;;;;;;6.78;6.00;;;;;;;26.95;50.61;100048.81;5029693;28;20072;-77
2022/07/31 00:37:15;;;;;;;9.52;6.10;;;;;;;26.93;51.72;100053.28;5029360;28;20025;-80
2022/07/31 00:39:40;;;;;;;11.63;6.00;;;;;;;26.84;52.34;100068.66;5029037;28;20022;-80
2022/07/31 00:42:23;;;;;;;9.43;6.32;;;;;;;26.73;52.94;100061.94;5029518;28;20029;-80
2022/07/31 00:44:49;;;;;;;8.05;6.00;;;;;;;26.21;53.94;100040.84;5029423;28;20061;-76
2022/07/31 00:47:16;;;;;;;7.57;6.28;;;;;;;25.88;55.87;100046.31;5029766;28;20029;-76
2022/07/31 00:49:41;;;;;;;12.38;6.55;;;;;;;25.74;56.00;100014.22;5029998;28;20535;-76
2022/07/31 00:52:07;;;;;;;7.10;6.00;;;;;;;25.82;56.93;100028.00;5030321;28;20025;-77
2022/07/31 00:54:33;;;;;;;11.15;7.20;;;;;;;25.84;58.75;100034.13;5029349;28;20065;-78
2022/07/31 00:56:59;;;;;;;12.55;6.80;;;;;;;25.87;60.00;100031.41;5029610;28;20521;-76
2022/07/31 00:59:25;;;;;;;13.98;6.78;;;;;;;25.79;60.64;100018.41;5030153;28;20029;-82
2022/07/31 01:01:51;;;;;;;9.70;5.97;;;;;;;25.94;59.85;100017.03;5030018;28;20140;-80
2022/07/31 01:04:17;;;;;;;12.30;6.93;;;;;;;25.96;60.35;100023.13;5030035;28;20116;-81
2022/07/31 01:06:44;;;;;;;12.43;6.60;;;;;;;25.72;60.17;99981.66;5028733;28;20679;-80
2022/07/31 01:09:09;;;;;;;12.45;6.72;;;;;;;25.88;59.82;100014.59;5030067;28;20029;-80
2022/07/31 01:11:46;;;;;;;10.52;6.50;;;;;;;25.65;59.43;99965.16;5030021;28;20087;-81
2022/07/31 01:14:12;;;;;;;12.70;6.25;;;;;;;25.87;59.28;99986.44;5029766;28;20022;-80
2022/07/31 01:16:43;;;;;;;10.45;6.25;;;;;;;26.10;59.22;99998.03;5029786;28;20416;-80
2022/07/31 01:19:21;;;;;;;11.73;6.80;;;;;;;25.94;59.21;99963.28;5030060;28;20029;-80
2022/07/31 01:22:23;;;;;;;12.13;6.55;;;;;;;26.12;58.85;99994.41;5029956;28;20038;-81
2022/07/31 01:25:26;;;;;;;14.70;6.32;;;;;;;26.06;59.26;99985.84;5011972;28;20029;-80
2022/07/31 01:28:09;;;;;;;7.25;6.22;;;;;;;25.91;60.11;99979.28;5029460;28;20068;-78
2022/07/31 01:30:55;;;;;;;12.88;7.20;;;;;;;25.72;61.05;99979.00;5029636;28;20029;-79
2022/07/31 01:33:28;;;;;;;10.30;6.35;;;;;;;25.63;61.45;99972.25;5016063;28;20725;-80
2022/07/31 01:36:08;;;;;;;14.93;6.90;;;;;;;25.63;62.44;99959.91;5011615;28;20022;-78
2022/07/31 01:38:43;;;;;;;8.40;6.78;;;;;;;25.67;62.00;99955.38;5029411;28;20013;-79
2022/07/31 01:41:11;;;;;;;12.45;6.50;;;;;;;25.39;61.91;99906.09;5029618;28;20107;-80
2022/07/31 01:43:43;;;;;;;10.30;6.55;;;;;;;25.60;62.25;99940.66;5011947;28;20046;-79
2022/07/31 01:46:12;;;;;;;12.32;6.85;;;;;;;25.53;62.61;99932.03;5029664;28;20045;-78
2022/07/31 01:48:39;;;;;;;8.15;6.82;;;;;;;25.42;63.30;99935.06;5029028;28;20025;-78
2022/07/31 01:51:07;;;;;;;10.63;6.65;;;;;;;25.27;63.56;99917.91;5029799;28;20040;-79
2022/07/31 01:53:35;;;;;;;11.90;6.70;;;;;;;25.32;63.86;99923.91;5012005;28;20013;-76
2022/07/31 01:56:01;;;;;;;11.88;7.07;;;;;;;25.10;64.55;99886.75;5029545;28;20464;-76
2022/07/31 01:58:31;;;;;;;11.60;7.32;;;;;;;25.08;65.62;99904.41;5029357;28;20080;-76
2022/07/31 02:00:57;;;;;;;;;;;;;;;25.03;66.19;99901.94;5029778;28;20033;-76
2022/07/31 02:03:25;;;;;;;12.45;6.68;;;;;;;24.61;66.51;99835.47;5029107;28;20016;-82
2022/07/31 02:05:52;;;;;;;12.85;6.63;;;;;;;24.82;67.44;99899.97;5011751;28;20025;-80
2022/07/31 02:08:20;;;;;;;9.98;6.30;;;;;;;24.47;67.28;99834.13;5011695;28;20033;-77
2022/07/31 02:10:46;;;;;;;10.18;6.50;;;;;;;24.87;66.92;99900.69;5031168;28;20025;-78
2022/07/31 02:13:13;;;;;;;10.70;7.07;;;;;;;24.83;66.87;99883.22;5031592;28;20726;-77
2022/07/31 02:15:41;;;;;;;9.40;6.53;;;;;;;24.82;66.95;99895.56;5028492;28;20028;-82
2022/07/31 02:18:09;;;;;;;11.35;7.13;;;;;;;24.82;67.32;99902.63;5030678;28;20017;-78
2022/07/31 04:00:37;;;;;;;18.95;13.13;;;;;;;23.89;70.42;99986.97;5051423;28;20704;-79
2022/07/31 04:03:07;;;;;;;18.77;12.90;;;;;;;23.88;70.82;99979.97;5025643;28;20061;-78
2022/07/31 04:05:33;;;;;;;22.27;12.88;;;;;;;23.93;70.74;99975.47;4994956;28;20051;-77
2022/07/31 04:07:59;;;;;;;19.88;11.90;;;;;;;23.70;71.21;99981.28;5030746;28;20419;-82
2022/07/31 04:10:24;;;;;;;15.73;8.85;;;;;;;23.56;72.22;99993.06;5030375;28;20479;-78
2022/07/31 04:12:50;;;;;;;12.82;8.60;;;;;;;23.66;72.69;99993.66;5036146;28;20042;-80
2022/07/31 04:15:15;;;;;;;12.93;7.85;;;;;;;23.84;72.60;99992.34;5038459;28;20104;-80
2022/07/31 04:17:41;;;;;;;13.77;7.80;;;;;;;23.70;71.96;99947.91;5029639;28;20042;-78
2022/07/31 04:20:07;;;;;;;12.05;7.88;;;;;;;23.99;71.73;99969.16;5030330;28;20033;-79
2022/07/31 04:22:33;;;;;;;16.83;10.35;;;;;;;24.19;71.50;99982.66;5008292;28;20061;-77
2022/07/31 04:24:58;;;;;;;18.95;14.38;;;;;;;24.02;71.99;99993.66;5027955;28;20561;-77
2022/07/31 04:27:23;;;;;;;29.13;15.07;;;;;;;23.72;73.80;99988.25;5030176;28;20128;-78
2022/07/31 04:29:49;;;;;;;35.50;24.77;;;;;;;23.87;73.80;99986.97;5030102;28;20051;-77
2022/07/31 04:32:14;;;;;;;26.25;17.67;;;;;;;23.83;74.10;99995.03;5030730;28;20057;-76
2022/07/31 04:34:41;;;;;;;31.52;21.50;;;;;;;23.75;74.44;99992.56;5030369;28;20503;-75
2022/07/31 04:37:07;;;;;;;20.33;15.43;;;;;;;23.63;74.86;99983.22;5030447;28;20033;-75
2022/07/31 04:39:32;;;;;;;25.30;20.50;;;;;;;23.90;73.85;99989.56;5030272;28;20116;-76
2022/07/31 04:41:58;;;;;;;29.60;24.58;;;;;;;24.06;73.82;99982.16;5029393;28;20504;-76
2022/07/31 04:44:24;;;;;;;24.80;14.85;;;;;;;24.19;72.74;99981.81;5030415;28;20468;-77
2022/07/31 04:46:49;;;;;;;23.90;14.60;;;;;;;24.31;72.23;99984.13;5026164;28;20042;-76
2022/07/31 04:49:16;;;;;;;30.50;16.25;;;;;;;24.39;71.85;99978.63;5030444;28;20041;-77
2022/07/31 04:51:42;;;;;;;27.85;20.60;;;;;;;24.55;71.62;99984.34;5029608;28;20068;-76
2022/07/31 04:54:09;;;;;;;35.10;23.58;;;;;;;24.30;71.64;99987.66;5029597;28;20030;-75
2022/07/31 04:56:43;;;;;;;39.22;30.08;;;;;;;24.27;72.06;99990.38;5029220;28;20038;-78
2022/07/31 04:59:14;;;;;;;66.68;47.50;;;;;;;24.34;71.94;99991.94;5029324;28;20570;-76
2022/07/31 05:01:41;;;;;;;30.92;23.05;;;;;;;24.10;72.50;99995.25;5029133;28;20081;-75
2022/07/31 05:04:08;;;;;;;32.65;24.13;;;;;;;23.89;74.14;100001.00;5029399;28;20030;-76
2022/07/31 05:06:36;;;;;;;32.25;22.88;;;;;;;23.90;75.58;99996.59;5029298;28;20418;-77
2022/07/31 05:09:05;;;;;;;20.00;13.70;;;;;;;23.81;74.99;100012.66;5029384;28;20112;-75
2022/07/31 05:11:32;;;;;;;24.45;15.55;;;;;;;23.90;75.15;100002.75;5029038;28;20064;-76
2022/07/31 05:13:59;;;;;;;17.25;12.98;;;;;;;24.06;74.53;100010.28;5030531;28;20144;-75
2022/07/31 05:16:26;;;;;;;16.92;11.50;;;;;;;23.79;73.29;99945.91;5028850;28;20038;-74
2022/07/31 05:18:51;;;;;;;16.10;9.30;;;;;;;24.19;73.31;100008.19;5028643;28;20064;-76
2022/07/31 05:21:19;;;;;;;9.60;8.30;;;;;;;24.26;73.70;100015.00;5030026;28;20068;-76
2022/07/31 05:23:46;;;;;;;16.95;9.80;;;;;;;24.25;74.06;100013.31;5029724;28;20041;-76
2022/07/31 05:26:12;;;;;;;9.25;7.82;;;;;;;24.37;72.90;100015.63;5029939;28;20037;-79
2022/07/31 05:28:38;;;;;;;42.33;29.92;;;;;;;24.49;73.93;99987.16;5028457;28;20033;-77
2022/07/31 05:31:06;;;;;;;14.38;9.80;;;;;;;24.71;72.61;100001.47;5029225;28;20038;-77
2022/07/31 05:33:32;;;;;;;14.13;10.88;;;;;;;24.70;72.69;99991.81;5009633;28;20116;-80
2022/07/31 05:35:59;;;;;;;19.15;10.27;;;;;;;24.71;72.31;99992.69;5026178;28;20042;-78
2022/07/31 05:38:26;;;;;;;21.10;13.32;;;;;;;24.77;72.47;99999.56;5029030;28;20201;-76
2022/07/31 05:40:52;;;;;;;9.82;7.18;;;;;;;24.58;71.24;99965.75;5029382;28;20034;-76
2022/07/31 05:43:18;;;;;;;13.95;9.82;;;;;;;24.79;72.30;100009.16;5029942;28;20041;-77
2022/07/31 05:45:45;;;;;;;12.80;7.68;;;;;;;24.70;71.66;99999.75;5030137;28;20034;-76
2022/07/31 05:48:14;;;;;;;11.35;7.78;;;;;;;24.84;72.51;100014.31;5029650;28;20092;-77
2022/07/31 05:50:44;;;;;;;10.55;6.70;;;;;;;24.97;72.63;100013.06;5029852;28;20038;-77
2022/07/31 05:53:16;;;;;;;9.13;6.72;;;;;;;24.75;70.92;99975.88;5031421;28;20041;-78
2022/07/31 05:55:46;;;;;;;9.02;6.82;;;;;;;25.08;72.47;100015.34;5033883;28;20044;-78
2022/07/31 05:58:13;;;;;;;10.68;6.22;;;;;;;25.10;71.11;100008.25;5033601;28;20121;-77
2022/07/31 06:00:39;;;;;;;7.30;6.30;;;;;;;25.13;71.03;100018.72;5033327;28;20132;-78
2022/07/31 06:03:04;;;;;;;9.88;6.60;;;;;;;25.04;71.73;100014.56;5033896;28;20037;-81
2022/07/31 06:05:30;;;;;;;9.43;6.45;;;;;;;25.16;71.30;100018.63;5033608;28;20103;-80
2022/07/31 06:07:57;;;;;;;11.77;7.15;;;;;;;25.23;70.42;100015.81;5033777;28;20032;-80
2022/07/31 06:10:23;;;;;;;10.68;6.70;;;;;;;25.21;70.31;100013.22;5033352;28;20041;-81
2022/07/31 06:12:49;;;;;;;15.13;7.63;;;;;;;25.27;71.63;100005.09;4999369;28;20448;-81
2022/07/31 06:15:14;;;;;;;11.07;5.95;;;;;;;25.38;70.02;100025.06;5033284;28;20121;-80
2022/07/31 06:17:41;;;;;;;11.25;6.47;;;;;;;25.00;70.37;99967.19;5033224;28;20126;-81
2022/07/31 06:20:07;;;;;;;11.63;6.60;;;;;;;25.29;70.41;100005.91;5033017;28;20132;-80
2022/07/31 06:22:32;;;;;;;9.40;6.60;;;;;;;24.94;71.25;99978.81;5033278;28;20033;-81
2022/07/31 06:24:58;;;;;;;8.90;6.50;;;;;;;25.11;70.57;100003.81;5033276;28;20538;-76
2022/07/31 06:27:23;;;;;;;9.07;6.40;;;;;;;25.15;70.68;100006.34;5015622;28;20052;-76
2022/07/31 06:29:49;;;;;;;10.05;8.48;;;;;;;25.15;70.78;99992.28;5033048;28;20041;-76
2022/07/31 06:32:14;;;;;;;8.95;6.20;;;;;;;25.15;70.18;100002.84;5015572;28;20404;-76
2022/07/31 06:34:40;;;;;;;10.35;6.88;;;;;;;25.25;72.23;100009.56;5032949;28;20045;-76
2022/07/31 06:37:06;;;;;;;9.20;6.97;;;;;;;25.13;69.36;99949.19;5015024;28;20037;-78
2022/07/31 06:39:32;;;;;;;11.13;6.75;;;;;;;25.53;70.12;100003.41;5032878;28;20657;-78
2022/07/31 06:41:57;;;;;;;8.38;6.28;;;;;;;25.23;69.18;99970.88;5015183;28;20048;-79
2022/07/31 06:44:23;;;;;;;7.80;7.00;;;;;;;25.60;68.41;100012.03;5014368;28;20479;-77
2022/07/31 06:46:50;;;;;;;7.05;6.35;;;;;;;25.45;68.38;100010.75;5032932;28;20033;-80
2022/07/31 06:49:17;;;;;;;7.07;6.32;;;;;;;25.48;69.08;100015.91;5032796;28;20037;-78
2022/07/31 06:51:43;;;;;;;8.52;5.78;;;;;;;25.17;68.49;99935.84;5032861;28;20060;-78
2022/07/31 06:54:10;;;;;;;7.75;6.20;;;;;;;25.77;67.75;100008.81;5015172;28;20045;-78
2022/07/31 06:56:36;;;;;;;14.68;10.68;;;;;;;25.90;67.96;100003.97;5014927;28;20506;-78
2022/07/31 06:59:03;;;;;;;14.82;9.30;;;;;;;26.12;66.92;100004.09;5032170;28;20083;-78
2022/07/31 07:01:28;;;;;;;12.68;10.10;;;;;;;26.13;65.29;99985.56;5032471;28;20055;-76
2022/07/31 07:03:54;;;;;;;10.82;7.97;;;;;;;25.93;64.20;99950.97;5031813;28;20049;-78
2022/07/31 07:06:20;;;;;;;9.88;7.18;;;;;;;26.03;64.65;99959.44;5031958;28;20389;-78
2022/07/31 07:08:47;;;;;;;8.85;6.60;;;;;;;26.24;64.60;100010.75;5033005;28;20037;-77
2022/07/31 07:11:13;;;;;;;11.68;10.27;;;;;;;26.32;63.88;100014.88;4998679;28;20049;-77
2022/07/31 07:13:39;;;;;;;10.82;7.70;;;;;;;26.43;64.68;100005.66;5032360;28;20041;-77
2022/07/31 07:16:04;;;;;;;14.15;8.82;;;;;;;26.45;63.75;99995.91;5032136;28;20034;-77
2022/07/31 07:18:30;;;;;;;8.88;6.60;;;;;;;26.47;63.40;100002.84;5032458;28;20120;-77
2022/07/31 07:20:56;;;;;;;7.97;6.57;;;;;;;26.19;64.53;99958.00;5032356;28;20041;-78
2022/07/31 07:23:21;;;;;;;33.33;12.07;;;;;;;26.40;62.69;99997.84;4980703;28;20427;-78
2022/07/31 07:25:47;;;;;;;8.80;6.80;;;;;;;26.36;61.48;99977.72;5013787;28;20095;-81
2022/07/31 07:28:16;;;;;;;15.52;13.07;;;;;;;26.06;62.50;99909.13;5030393;28;20057;-81
2022/07/31 07:30:42;;;;;;;13.25;9.70;;;;;;;26.48;61.88;99971.94;5031559;28;20033;-83
2022/07/31 07:33:07;;;;;;;16.88;13.70;;;;;;;26.62;61.56;99987.34;5013864;28;20407;-80
2022/07/31 07:35:32;;;;;;;14.23;10.50;;;;;;;26.60;62.65;99987.38;5031603;28;20092;-80
2022/07/31 07:37:58;;;;;;;13.27;7.80;;;;;;;26.73;61.06;99994.84;5013918;28;20468;-81
2022/07/31 07:40:25;;;;;;;14.30;10.70;;;;;;;26.73;61.57;99994.84;5031492;28;20103;-81
2022/07/31 07:42:51;;;;;;;12.15;9.68;;;;;;;26.60;61.80;99962.69;5031614;28;20052;-81
2022/07/31 07:45:17;;;;;;;8.30;6.70;;;;;;;26.76;61.24;99987.69;5028817;28;20490;-83
2022/07/31 07:47:42;;;;;;;11.10;7.82;;;;;;;26.72;61.40;99972.81;5031444;28;20065;-81
2022/07/31 07:50:09;;;;;;;8.88;7.88;;;;;;;26.90;60.11;99997.75;5013493;28;20064;-78
2022/07/31 07:52:36;;;;;;;14.43;11.10;;;;;;;26.73;61.17;99986.91;5031036;28;20029;-81
2022/07/31 07:55:02;;;;;;;8.82;7.72;;;;;;;26.72;61.50;99986.06;5031385;28;20033;-77
2022/07/31 07:57:28;;;;;;;9.70;6.78;;;;;;;26.74;60.57;99973.66;5031132;28;20104;-80
2022/07/31 07:59:54;;;;;;;11.10;7.43;;;;;;;26.79;60.73;99981.41;5031168;28;20120;-81
2022/07/31 08:02:19;;;;;;;9.50;7.78;;;;;;;26.93;59.95;99980.88;5030744;28;20128;-79
2022/07/31 08:04:45;;;;;;;9.40;7.70;;;;;;;26.95;60.02;99974.63;5031082;28;20052;-76
2022/07/31 08:07:10;;;;;;;13.68;11.88;;;;;;;27.03;58.66;99966.38;5031188;28;20045;-77
2022/07/31 08:09:36;;;;;;;8.73;6.28;;;;;;;27.26;58.19;99981.34;5030817;28;20519;-78
2022/07/31 08:12:03;;;;;;;9.52;6.18;;;;;;;27.21;57.18;99942.72;5013906;28;20037;-79
2022/07/31 08:14:28;;;;;;;8.90;6.75;;;;;;;27.48;55.71;99964.59;5012098;28;20120;-79
2022/07/31 08:16:55;;;;;;;8.88;6.53;;;;;;;27.78;56.63;99974.84;5030385;28;20528;-78
2022/07/31 08:19:21;;;;;;;7.95;6.47;;;;;;;27.99;56.18;99972.19;5029344;28;20091;-78
2022/07/31 08:21:46;;;;;;;7.30;6.57;;;;;;;28.13;54.59;99961.03;5029761;28;20065;-78
2022/07/31 08:24:12;;;;;;;7.28;6.03;;;;;;;28.21;54.37;99951.78;5030115;28;20060;-79
2022/07/31 08:29:23;;;;;;;7.65;5.82;;;;;;;28.64;51.78;99974.66;5028569;28;20036;-80
2022/07/31 08:31:50;;;;;;;8.55;6.30;;;;;;;28.73;52.16;99982.22;5030102;28;20495;-79
2022/07/31 08:34:16;;;;;;;7.60;5.97;;;;;;;28.79;51.62;99958.03;4994171;28;20072;-79
2022/07/31 08:36:42;;;;;;;7.30;6.60;;;;;;;28.82;51.18;99952.53;5029443;28;20492;-79
2022/07/31 08:39:07;;;;;;;7.60;6.25;;;;;;;28.97;51.67;99960.72;5028786;28;20057;-80
2022/07/31 08:41:37;;;;;;;10.82;5.97;;;;;;;29.07;51.22;99956.69;5024437;28;20392;-80
2022/07/31 08:44:06;;;;;;;7.22;5.50;;;;;;;29.28;50.19;99965.41;5028768;28;20096;-80
2022/07/31 08:46:36;;;;;;;7.97;6.30;;;;;;;29.38;50.04;99965.84;5029758;28;20030;-80
2022/07/31 08:49:02;;;;;;;9.30;6.93;;;;;;;29.57;51.66;99967.59;5027217;28;20036;-80
2022/07/31 08:51:38;;;;;;;8.63;6.68;;;;;;;29.68;49.09;99963.47;5026650;28;20030;-79
2022/07/31 08:54:10;;;;;;;10.02;6.57;;;;;;;29.85;49.17;99964.41;5010325;28;20431;-81
2022/07/31 08:56:39;;;;;;;7.78;6.32;;;;;;;29.69;48.84;99917.28;5027648;28;20103;-77
2022/07/31 08:59:05;;;;;;;;;;;;;;;30.08;47.81;99951.72;5003845;28;20091;-78
2022/07/31 09:01:35;;;;;;;6.80;6.07;;;;;;;30.22;46.96;99956.31;5028854;28;19921;-79
2022/07/31 09:04:01;;;;;;;7.63;6.20;;;;;;;29.95;47.47;99895.63;5026357;28;21048;-78
2022/07/31 09:06:26;;;;;;;8.50;6.72;;;;;;;30.31;47.38;99947.84;5023838;28;20419;-79
2022/07/31 09:08:55;;;;;;;8.57;5.63;;;;;;;30.28;45.14;99929.34;5024766;28;20030;-81
2022/07/31 09:11:21;;;;;;;8.90;5.20;;;;;;;30.28;45.13;99937.34;5024110;28;20043;-80
2022/07/31 09:13:57;;;;;;;6.63;5.70;;;;;;;30.47;45.13;99940.72;5028495;28;20065;-80
2022/07/31 09:16:24;;;;;;;8.07;5.30;;;;;;;30.60;46.45;99937.44;5025921;28;20547;-77
2022/07/31 09:19:01;;;;;;;5.38;4.88;;;;;;;30.73;45.37;99941.13;5018355;28;20495;-77
2022/07/31 09:21:38;;;;;;;8.70;5.57;;;;;;;30.87;45.98;99936.81;5025651;28;20042;-79
2022/07/31 09:24:04;;;;;;;6.70;4.90;;;;;;;31.05;44.25;99941.09;5024344;28;20483;-78
2022/07/31 09:26:34;;;;;;;6.63;5.03;;;;;;;30.90;42.46;99915.34;5028621;28;20120;-77
2022/07/31 09:29:00;;;;;;;6.85;5.10;;;;;;;30.81;43.21;99928.22;5013683;28;20504;-79
2022/07/31 09:31:35;;;;;;;6.40;5.60;;;;;;;30.89;44.36;99932.25;5033539;28;20033;-78
2022/07/31 09:34:00;;;;;;;8.60;4.75;;;;;;;30.96;43.01;99922.97;4997951;28;20044;-78
2022/07/31 09:36:26;;;;;;;7.03;5.25;;;;;;;31.10;42.68;99932.88;5033954;28;20033;-80
2022/07/31 09:38:52;;;;;;;6.65;5.57;;;;;;;31.24;41.73;99927.63;5033794;28;20068;-81
2022/07/31 09:41:19;;;;;;;8.70;5.13;;;;;;;31.22;43.80;99908.16;5034151;28;20041;-80
2022/07/31 09:44:01;;;;;;;5.70;5.15;;;;;;;30.72;43.29;99840.81;5031464;28;20051;-80
2022/07/31 09:46:47;;;;;;;11.20;5.32;;;;;;;31.04;44.40;99917.19;5031659;28;20057;-79
2022/07/31 09:49:13;;;;;;;5.80;5.20;;;;;;;31.04;43.61;99920.75;5030725;28;20037;-75
2022/07/31 09:51:39;;;;;;;7.85;5.40;;;;;;;31.05;41.49;99914.44;5031650;28;20056;-81
2022/07/31 09:54:05;;;;;;;6.18;5.57;;;;;;;31.06;43.33;99920.66;5032577;28;20037;-78
2022/07/31 09:56:32;;;;;;;5.05;4.22;;;;;;;30.96;41.46;99859.84;5036279;28;20124;-79
2022/07/31 09:58:58;;;;;;;9.20;5.10;;;;;;;31.59;41.07;99911.34;5034639;28;20112;-79
2022/07/31 10:01:24;;;;;;;6.05;5.18;;;;;;;31.62;39.01;99859.59;5015195;28;20052;-78
2022/07/31 10:03:51;;;;;;;7.07;4.43;;;;;;;32.06;38.82;99898.72;5033623;28;20037;-80
2022/07/31 10:06:19;;;;;;;5.63;4.88;;;;;;;32.25;40.14;99895.81;5032976;28;20065;-80
2022/07/31 10:08:45;;;;;;;6.32;4.60;;;;;;;32.19;38.36;99839.19;5033164;28;20499;-80
2022/07/31 10:11:18;;;;;;;7.22;4.72;;;;;;;32.22;37.93;99876.44;5033432;28;20112;-81
2022/07/31 10:13:47;;;;;;;5.57;4.13;;;;;;;32.06;38.21;99823.09;5014458;28;20037;-80
2022/07/31 10:16:13;;;;;;;6.00;5.13;;;;;;;32.65;39.86;99881.72;5013665;28;20041;-80
2022/07/31 10:18:41;;;;;;;8.30;4.97;;;;;;;32.67;37.39;99846.84;5033234;28;20087;-83
2022/07/31 10:21:10;;;;;;;8.25;4.97;;;;;;;32.96;39.05;99870.84;5032715;28;20116;-78
2022/07/31 10:23:40;;;;;;;5.80;4.68;;;;;;;33.20;36.87;99871.88;5033061;28;20052;-81
2022/07/31 10:26:06;;;;;;;5.28;4.35;;;;;;;33.37;38.09;99875.25;5033139;28;20589;-79
2022/07/31 10:28:36;;;;;;;7.40;4.68;;;;;;;33.37;39.22;99867.22;5032883;28;20411;-81
2022/07/31 10:31:02;;;;;;;5.15;4.38;;;;;;;33.19;36.62;99822.00;5033115;28;20124;-81
2022/07/31 10:33:28;;;;;;;6.28;4.38;;;;;;;33.71;36.69;99864.91;5031563;28;20037;-85
2022/07/31 10:36:04;;;;;;;5.68;4.40;;;;;;;33.75;34.55;99838.75;5032198;28;20578;-82
2022/07/31 10:38:44;;;;;;;8.02;5.05;;;;;;;33.89;37.38;99843.19;5014767;28;20129;-83
2022/07/31 10:41:40;;;;;;;7.15;4.35;;;;;;;34.02;34.22;99852.91;5032674;28;20528;-83
2022/07/31 10:44:22;;;;;;;5.95;4.95;;;;;;;33.72;34.32;99834.47;5030157;28;20088;-83
2022/07/31 10:46:47;;;;;;;5.28;4.60;;;;;;;33.95;33.74;99856.97;5014833;28;20033;-82
2022/07/31 10:49:13;;;;;;;9.43;4.85;;;;;;;34.12;37.99;99854.91;5032506;28;20501;-82
2022/07/31 10:51:49;;;;;;;7.97;4.72;;;;;;;34.14;35.39;99839.59;5032775;28;20492;-80
2022/07/31 10:54:15;;;;;;;8.98;4.85;;;;;;;33.98;35.99;99813.94;5032361;28;20068;-82
2022/07/31 10:56:45;;;;;;;6.35;4.97;;;;;;;33.57;39.01;99817.66;5032279;28;20073;-84
2022/07/31 10:59:11;;;;;;;7.28;4.80;;;;;;;33.66;35.69;99825.06;5032363;28;20415;-81
2022/07/31 11:01:50;;;;;;;6.00;4.50;;;;;;;33.44;34.57;99787.41;5032253;28;20057;-85
2022/07/31 11:04:31;;;;;;;8.45;4.50;;;;;;;33.88;33.57;99822.72;5032190;28;20443;-77
2022/07/31 11:06:57;;;;;;;7.32;4.22;;;;;;;33.87;34.15;99813.81;5032370;28;20034;-78
2022/07/31 11:09:28;;;;;;;7.40;5.03;;;;;;;33.96;34.02;99826.56;5014403;28;20033;-78
2022/07/31 11:11:54;;;;;;;5.15;4.55;;;;;;;34.35;33.91;99819.31;5032185;28;20041;-78
2022/07/31 11:14:39;;;;;;;5.88;4.32;;;;;;;34.66;34.83;99825.06;5031688;28;20531;-78
2022/07/31 11:17:04;;;;;;;6.38;4.35;;;;;;;34.86;33.47;99813.81;5032036;28;20431;-84
2022/07/31 11:19:56;;;;;;;5.97;4.15;;;;;;;34.76;32.46;99821.72;5013624;28;20034;-82
2022/07/31 11:22:22;;;;;;;6.22;4.57;;;;;;;34.56;34.42;99818.69;4932387;29;20048;-82
2022/07/31 11:24:54;;;;;;;6.10;4.18;;;;;;;34.18;33.48;99806.25;4932409;29;20099;-81
2022/07/31 11:27:33;;;;;;;5.47;4.60;;;;;;;34.00;33.74;99813.81;4932023;29;20130;-77
2022/07/31 11:30:06;;;;;;;5.17;4.30;;;;;;;33.94;34.52;99819.63;4932005;29;20039;-78
2022/07/31 11:32:32;;;;;;;5.63;4.05;;;;;;;33.97;33.24;99811.34;4932166;29;20270;-77
2022/07/31 11:34:57;;;;;;;5.50;4.28;;;;;;;34.36;35.09;99817.50;4931422;29;20052;-75
2022/07/31 11:37:29;;;;;;;9.80;4.40;;;;;;;34.26;33.86;99811.91;4931471;29;20505;-73
2022/07/31 11:39:55;;;;;;;4.97;4.30;;;;;;;34.42;33.23;99794.72;4929018;29;20054;-73
2022/07/31 11:42:22;;;;;;;7.15;4.03;;;;;;;34.65;30.75;99788.50;4931244;29;20063;-73
2022/07/31 11:44:48;;;;;;;6.35;4.55;;;;;;;34.81;29.99;99784.69;4931482;29;20040;-74
2022/07/31 11:47:14;;;;;;;8.18;4.25;;;;;;;34.99;30.46;99788.69;4931392;29;20042;-74
2022/07/31 11:49:40;;;;;;;5.13;4.10;;;;;;;34.75;30.36;99777.09;4931607;29;20035;-76
2022/07/31 11:52:08;;;;;;;4.30;3.90;;;;;;;34.56;30.29;99791.03;4931591;29;20098;-77
2022/07/31 11:54:35;;;;;;;5.82;3.70;;;;;;;34.15;30.75;99787.75;4931459;29;20454;-77
2022/07/31 11:57:01;;;;;;;5.72;3.97;;;;;;;34.07;30.17;99779.41;4931223;29;20052;-77
2022/07/31 11:59:38;;;;;;;4.60;4.15;;;;;;;34.12;33.02;99793.31;4979238;28;20030;-76
2022/07/31 12:02:07;;;;;;;6.15;4.30;;;;;;;33.65;32.76;99811.81;5008730;28;20050;-78
2022/07/31 12:04:35;;;;;;;7.80;4.35;;;;;;;33.21;34.33;99803.16;5008730;28;20037;-74
2022/07/31 12:07:02;;;;;;;7.45;4.20;;;;;;;32.73;36.55;99817.91;5008872;28;20460;-75
2022/07/31 12:09:32;;;;;;;43.72;6.70;;;;;;;32.09;39.57;99821.09;5008746;28;20519;-75
2022/07/31 12:11:58;;;;;;;53.47;9.05;;;;;;;30.66;45.03;99830.50;5008871;28;20050;-74
2022/07/31 12:14:34;;;;;;;34.78;9.38;;;;;;;28.34;67.45;99861.81;5008415;28;20042;-74
2022/07/31 12:17:01;;;;;;;17.60;8.10;;;;;;;26.91;74.35;99807.94;5008445;28;20132;-72
2022/07/31 12:19:30;;;;;;;16.83;7.70;;;;;;;26.77;78.83;99883.50;4992018;28;20065;-77
2022/07/31 12:21:57;;;;;;;19.98;8.57;;;;;;;26.11;82.03;99886.88;5008321;28;20041;-75
2022/07/31 12:24:25;;;;;;;11.90;7.72;;;;;;;25.55;84.27;99890.59;5010469;28;20029;-76
2022/07/31 12:26:59;;;;;;;13.10;7.83;;;;;;;25.38;86.37;99848.88;5012302;28;20034;-77
2022/07/31 12:29:50;;;;;;;11.70;6.80;;;;;;;25.94;77.44;99894.53;5031470;28;20272;-76
2022/07/31 12:32:24;;;;;;;11.50;6.20;;;;;;;26.38;69.84;99854.13;4914591;29;20040;-76
2022/07/31 12:35:00;;;;;;;10.40;7.45;;;;;;;26.50;78.75;99802.50;4930102;29;20047;-76
2022/07/31 12:37:26;;;;;;;10.15;7.00;;;;;;;26.82;73.64;99832.13;4928617;29;20036;-75
2022/07/31 12:39:53;;;;;;;9.18;7.38;;;;;;;27.49;73.91;99838.19;4928651;29;20039;-77
2022/07/31 12:42:27;;;;;;;9.48;6.68;;;;;;;28.38;71.45;99820.06;4926266;29;20510;-74
2022/07/31 12:44:56;;;;;;;15.20;7.22;;;;;;;29.09;67.17;99803.34;4930043;29;20126;-78
2022/07/31 12:47:22;;;;;;;11.30;6.07;;;;;;;29.60;66.38;99815.84;4930199;29;20530;-79
2022/07/31 12:49:48;;;;;;;11.40;7.25;;;;;;;29.83;72.61;99802.19;4929489;29;20046;-77
2022/07/31 12:52:13;;;;;;;7.75;6.30;;;;;;;30.13;62.89;99758.00;4930126;29;20036;-76
2022/07/31 12:54:39;;;;;;;8.15;7.03;;;;;;;30.66;58.65;99796.72;4928202;29;20086;-77
2022/07/31 12:57:04;;;;;;;7.53;5.85;;;;;;;31.17;61.54;99803.59;4930101;29;20047;-79
2022/07/31 12:59:32;;;;;;;7.65;6.57;;;;;;;31.32;57.69;99777.81;4913848;29;20062;-78
2022/07/31 13:01:57;;;;;;;6.22;5.28;;;;;;;31.64;55.67;99799.03;4929259;29;20073;-79
2022/07/31 13:04:23;;;;;;;6.95;5.47;;;;;;;31.86;55.12;99789.66;4930429;29;20089;-78
2022/07/31 13:06:50;;;;;;;10.68;6.07;;;;;;;32.24;56.59;99781.91;4930031;29;20039;-79
2022/07/31 13:09:16;;;;;;;15.55;6.90;;;;;;;32.19;57.02;99760.00;4987851;28;20069;-76
2022/07/31 13:11:42;;;;;;;9.70;6.38;;;;;;;32.31;52.95;99782.34;5029253;28;20076;-79
2022/07/31 13:14:08;;;;;;;9.02;5.85;;;;;;;32.22;51.98;99766.94;5012428;28;20046;-77